sensor_id;sensor_type;location;lat;lon;timestamp;pressure;altitude;pressure_sealevel;temperature;humidity
54389;BME280;40975;50.390;8.640;2023-07-13T00:01:39;98924.72;;;15.49;86.78
54389;BME280;40975;50.390;8.640;2023-07-13T00:04:04;98930.34;;;15.54;86.99
54389;BME280;40975;50.390;8.640;2023-07-13T00:06:29;98924.53;;;15.51;86.51
54389;BME280;40975;50.390;8.640;2023-07-13T00:08:59;98929.69;;;15.52;85.90
54389;BME280;40975;50.390;8.640;2023-07-13T00:11:25;98933.31;;;15.60;86.06
54389;BME280;40975;50.390;8.640;2023-07-13T00:13:51;98922.97;;;15.57;85.17
54389;BME280;40975;50.390;8.640;2023-07-13T00:16:16;98933.97;;;15.62;84.89
54389;BME280;40975;50.390;8.640;2023-07-13T00:18:41;98933.22;;;15.68;84.95
54389;BME280;40975;50.390;8.640;2023-07-13T00:21:07;98931.00;;;15.72;84.65
54389;BME280;40975;50.390;8.640;2023-07-13T00:23:36;98932.66;;;15.73;84.57
54389;BME280;40975;50.390;8.640;2023-07-13T00:26:03;98938.13;;;15.79;83.19
54389;BME280;40975;50.390;8.640;2023-07-13T00:28:29;98940.25;;;15.84;83.26
54389;BME280;40975;50.390;8.640;2023-07-13T00:30:55;98950.59;;;15.87;82.65
54389;BME280;40975;50.390;8.640;2023-07-13T00:33:20;98943.41;;;15.88;83.81
54389;BME280;40975;50.390;8.640;2023-07-13T00:35:46;98948.09;;;15.85;83.49
54389;BME280;40975;50.390;8.640;2023-07-13T00:38:12;98946.44;;;15.84;82.79
54389;BME280;40975;50.390;8.640;2023-07-13T00:40:37;98948.56;;;15.89;83.20
54389;BME280;40975;50.390;8.640;2023-07-13T00:43:09;98950.22;;;15.90;82.35
54389;BME280;40975;50.390;8.640;2023-07-13T00:48:27;98957.78;;;16.01;81.81
54389;BME280;40975;50.390;8.640;2023-07-13T00:50:55;98953.25;;;16.02;81.47
54389;BME280;40975;50.390;8.640;2023-07-13T00:53:23;98960.75;;;16.07;82.59
54389;BME280;40975;50.390;8.640;2023-07-13T00:55:53;98964.03;;;16.09;82.18
54389;BME280;40975;50.390;8.640;2023-07-13T00:58:21;98963.03;;;16.10;82.02
54389;BME280;40975;50.390;8.640;2023-07-13T01:00:48;98969.78;;;16.21;80.45
54389;BME280;40975;50.390;8.640;2023-07-13T01:03:15;98969.78;;;16.21;79.46
54389;BME280;40975;50.390;8.640;2023-07-13T01:05:40;98972.91;;;16.24;79.50
54389;BME280;40975;50.390;8.640;2023-07-13T01:08:06;98972.34;;;16.29;79.50
54389;BME280;40975;50.390;8.640;2023-07-13T01:10:33;98974.25;;;16.35;78.34
54389;BME280;40975;50.390;8.640;2023-07-13T01:13:07;98979.81;;;16.34;78.51
54389;BME280;40975;50.390;8.640;2023-07-13T01:15:34;98970.53;;;16.51;78.17
54389;BME280;40975;50.390;8.640;2023-07-13T01:18:00;98974.13;;;16.43;77.53
54389;BME280;40975;50.390;8.640;2023-07-13T01:20:26;98971.00;;;16.40;78.02
54389;BME280;40975;50.390;8.640;2023-07-13T01:22:52;98979.25;;;16.38;78.04
54389;BME280;40975;50.390;8.640;2023-07-13T01:25:17;98984.59;;;16.38;77.65
54389;BME280;40975;50.390;8.640;2023-07-13T01:27:43;98984.97;;;16.35;78.34
54389;BME280;40975;50.390;8.640;2023-07-13T01:30:09;98967.63;;;16.31;77.89
54389;BME280;40975;50.390;8.640;2023-07-13T01:32:35;98973.06;;;16.23;80.17
54389;BME280;40975;50.390;8.640;2023-07-13T01:35:02;98972.06;;;16.09;81.48
54389;BME280;40975;50.390;8.640;2023-07-13T01:37:28;98964.34;;;15.99;80.90
54389;BME280;40975;50.390;8.640;2023-07-13T01:39:58;98967.56;;;15.94;81.78
54389;BME280;40975;50.390;8.640;2023-07-13T01:42:23;98954.91;;;15.88;81.81
54389;BME280;40975;50.390;8.640;2023-07-13T01:44:49;98952.31;;;15.80;81.54
54389;BME280;40975;50.390;8.640;2023-07-13T01:47:14;98950.56;;;15.72;82.25
54389;BME280;40975;50.390;8.640;2023-07-13T01:49:39;98954.06;;;15.73;81.88
54389;BME280;40975;50.390;8.640;2023-07-13T01:52:06;98949.16;;;15.61;81.57
54389;BME280;40975;50.390;8.640;2023-07-13T01:54:31;98958.22;;;15.60;82.30
54389;BME280;40975;50.390;8.640;2023-07-13T01:56:59;98954.41;;;15.54;83.09
54389;BME280;40975;50.390;8.640;2023-07-13T01:59:24;98965.00;;;15.48;83.89
54389;BME280;40975;50.390;8.640;2023-07-13T02:01:49;98953.94;;;15.36;83.81
54389;BME280;40975;50.390;8.640;2023-07-13T02:04:15;98956.69;;;15.28;85.33
54389;BME280;40975;50.390;8.640;2023-07-13T02:06:40;98953.09;;;15.20;83.65
54389;BME280;40975;50.390;8.640;2023-07-13T02:09:05;98961.38;;;15.26;84.20
54389;BME280;40975;50.390;8.640;2023-07-13T02:11:33;98970.06;;;15.28;84.36
54389;BME280;40975;50.390;8.640;2023-07-13T02:14:00;98970.47;;;15.16;85.75
54389;BME280;40975;50.390;8.640;2023-07-13T02:16:27;98967.03;;;15.07;84.85
54389;BME280;40975;50.390;8.640;2023-07-13T02:18:52;98963.41;;;15.00;86.22
54389;BME280;40975;50.390;8.640;2023-07-13T02:21:17;98963.81;;;14.97;85.63
54389;BME280;40975;50.390;8.640;2023-07-13T02:23:43;98973.41;;;14.83;85.86
54389;BME280;40975;50.390;8.640;2023-07-13T02:26:10;98967.09;;;14.76;85.44
54389;BME280;40975;50.390;8.640;2023-07-13T02:28:35;98969.31;;;14.72;86.39
54389;BME280;40975;50.390;8.640;2023-07-13T02:31:08;98965.31;;;14.68;86.98
54389;BME280;40975;50.390;8.640;2023-07-13T02:33:35;98967.16;;;14.68;87.02
54389;BME280;40975;50.390;8.640;2023-07-13T02:36:00;98956.13;;;14.62;86.92
54389;BME280;40975;50.390;8.640;2023-07-13T02:38:25;98963.66;;;14.59;87.78
54389;BME280;40975;50.390;8.640;2023-07-13T02:40:51;98964.53;;;14.59;88.49
54389;BME280;40975;50.390;8.640;2023-07-13T02:43:18;98966.88;;;14.54;87.69
54389;BME280;40975;50.390;8.640;2023-07-13T02:45:46;98965.75;;;14.49;88.82
54389;BME280;40975;50.390;8.640;2023-07-13T02:48:13;98969.06;;;14.51;87.27
54389;BME280;40975;50.390;8.640;2023-07-13T02:50:38;98967.88;;;14.53;86.93
54389;BME280;40975;50.390;8.640;2023-07-13T02:53:04;98978.22;;;14.56;85.68
54389;BME280;40975;50.390;8.640;2023-07-13T02:55:29;98971.88;;;14.57;85.65
54389;BME280;40975;50.390;8.640;2023-07-13T02:57:55;98971.88;;;14.57;87.00
54389;BME280;40975;50.390;8.640;2023-07-13T03:00:20;98967.88;;;14.53;86.46
54389;BME280;40975;50.390;8.640;2023-07-13T03:02:46;98968.78;;;14.45;87.40
54389;BME280;40975;50.390;8.640;2023-07-13T03:05:11;98973.78;;;14.40;87.43
54389;BME280;40975;50.390;8.640;2023-07-13T03:07:38;98974.50;;;14.34;87.52
54389;BME280;40975;50.390;8.640;2023-07-13T03:10:04;98974.19;;;14.29;87.81
54389;BME280;40975;50.390;8.640;2023-07-13T03:12:39;98972.19;;;14.31;86.90
54389;BME280;40975;50.390;8.640;2023-07-13T03:15:09;98976.84;;;14.29;87.25
54389;BME280;40975;50.390;8.640;2023-07-13T03:17:38;98970.66;;;14.37;85.90
54389;BME280;40975;50.390;8.640;2023-07-13T03:20:04;98976.00;;;14.37;86.17
54389;BME280;40975;50.390;8.640;2023-07-13T03:22:30;98976.31;;;14.34;86.52
54389;BME280;40975;50.390;8.640;2023-07-13T03:24:56;98977.03;;;14.27;87.73
54389;BME280;40975;50.390;8.640;2023-07-13T03:27:21;98984.13;;;14.12;87.42
54389;BME280;40975;50.390;8.640;2023-07-13T03:29:48;98984.28;;;14.10;88.25
54389;BME280;40975;50.390;8.640;2023-07-13T03:32:16;98983.59;;;14.08;89.35
54389;BME280;40975;50.390;8.640;2023-07-13T03:34:41;98983.50;;;14.02;89.04
54389;BME280;40975;50.390;8.640;2023-07-13T03:37:07;98987.50;;;13.97;88.60
54389;BME280;40975;50.390;8.640;2023-07-13T03:39:35;98988.81;;;14.02;89.78
54389;BME280;40975;50.390;8.640;2023-07-13T03:42:00;99000.50;;;14.01;89.49
54389;BME280;40975;50.390;8.640;2023-07-13T03:44:27;98997.31;;;14.05;87.39
54389;BME280;40975;50.390;8.640;2023-07-13T03:46:55;99011.81;;;14.11;88.43
54389;BME280;40975;50.390;8.640;2023-07-13T03:49:20;99014.94;;;14.23;86.82
54389;BME280;40975;50.390;8.640;2023-07-13T03:51:45;99016.88;;;14.29;86.48
54389;BME280;40975;50.390;8.640;2023-07-13T03:54:11;99019.56;;;14.29;87.69
54389;BME280;40975;50.390;8.640;2023-07-13T03:56:36;99026.75;;;14.28;87.36
54389;BME280;40975;50.390;8.640;2023-07-13T03:59:03;99022.91;;;14.31;86.30
54389;BME280;40975;50.390;8.640;2023-07-13T04:01:29;99020.41;;;14.29;87.12
54389;BME280;40975;50.390;8.640;2023-07-13T04:03:54;99018.41;;;14.32;86.56
54389;BME280;40975;50.390;8.640;2023-07-13T04:06:25;99016.88;;;14.29;87.23
54389;BME280;40975;50.390;8.640;2023-07-13T04:08:54;99022.06;;;14.30;86.97
54389;BME280;40975;50.390;8.640;2023-07-13T04:11:21;99022.91;;;14.31;88.15
54389;BME280;40975;50.390;8.640;2023-07-13T04:13:47;99010.91;;;14.27;87.63
54389;BME280;40975;50.390;8.640;2023-07-13T04:16:14;99014.75;;;14.24;88.30
54389;BME280;40975;50.390;8.640;2023-07-13T04:18:39;99014.41;;;14.27;88.04
54389;BME280;40975;50.390;8.640;2023-07-13T04:21:05;99018.25;;;14.25;89.88
54389;BME280;40975;50.390;8.640;2023-07-13T04:23:30;99016.25;;;14.19;89.80
54389;BME280;40975;50.390;8.640;2023-07-13T04:25:55;99018.59;;;14.22;90.98
54389;BME280;40975;50.390;8.640;2023-07-13T04:28:22;99025.44;;;14.16;90.41
54389;BME280;40975;50.390;8.640;2023-07-13T04:30:48;99020.78;;;14.18;91.00
54389;BME280;40975;50.390;8.640;2023-07-13T04:33:14;99024.13;;;14.20;90.22
54389;BME280;40975;50.390;8.640;2023-07-13T04:35:42;99023.94;;;14.22;91.36
54389;BME280;40975;50.390;8.640;2023-07-13T04:38:07;99021.94;;;14.24;90.89
54389;BME280;40975;50.390;8.640;2023-07-13T04:40:33;99019.75;;;14.27;91.05
54389;BME280;40975;50.390;8.640;2023-07-13T04:42:59;99028.91;;;14.33;90.46
54389;BME280;40975;50.390;8.640;2023-07-13T04:45:24;99031.22;;;14.36;90.65
54389;BME280;40975;50.390;8.640;2023-07-13T04:47:50;99029.53;;;14.43;89.96
54389;BME280;40975;50.390;8.640;2023-07-13T04:50:15;99031.66;;;14.48;90.40
54389;BME280;40975;50.390;8.640;2023-07-13T04:52:45;99032.97;;;14.60;87.95
54389;BME280;40975;50.390;8.640;2023-07-13T04:55:10;99026.09;;;14.66;88.76
54389;BME280;40975;50.390;8.640;2023-07-13T04:57:35;99026.88;;;14.75;87.90
54389;BME280;40975;50.390;8.640;2023-07-13T05:00:01;99033.69;;;14.86;86.53
54389;BME280;40975;50.390;8.640;2023-07-13T05:02:31;99041.97;;;14.91;86.41
54389;BME280;40975;50.390;8.640;2023-07-13T05:04:57;99033.91;;;14.99;85.03
54389;BME280;40975;50.390;8.640;2023-07-13T05:07:24;99034.22;;;15.04;85.62
54389;BME280;40975;50.390;8.640;2023-07-13T05:09:50;99042.97;;;15.21;84.81
54389;BME280;40975;50.390;8.640;2023-07-13T05:12:15;99039.75;;;15.26;84.03
54389;BME280;40975;50.390;8.640;2023-07-13T05:14:40;99038.13;;;15.40;83.92
54389;BME280;40975;50.390;8.640;2023-07-13T05:17:06;99039.88;;;15.48;83.17
54389;BME280;40975;50.390;8.640;2023-07-13T05:19:31;99046.00;;;15.57;82.25
54389;BME280;40975;50.390;8.640;2023-07-13T05:21:57;99046.22;;;15.70;81.35
54389;BME280;40975;50.390;8.640;2023-07-13T05:24:23;99043.41;;;15.87;79.43
54389;BME280;40975;50.390;8.640;2023-07-13T05:26:48;99046.09;;;16.01;78.51
54389;BME280;40975;50.390;8.640;2023-07-13T05:29:13;99053.94;;;16.18;77.59
54389;BME280;40975;50.390;8.640;2023-07-13T05:31:39;99056.34;;;16.43;76.77
54389;BME280;40975;50.390;8.640;2023-07-13T05:34:04;99054.78;;;17.00;73.64
54389;BME280;40975;50.390;8.640;2023-07-13T05:36:30;99061.47;;;18.05;68.37
54389;BME280;40975;50.390;8.640;2023-07-13T05:38:55;99061.13;;;19.11;61.74
54389;BME280;40975;50.390;8.640;2023-07-13T05:41:21;99061.38;;;20.04;58.13
54389;BME280;40975;50.390;8.640;2023-07-13T05:43:46;99065.34;;;20.74;55.99
54389;BME280;40975;50.390;8.640;2023-07-13T05:46:11;99069.34;;;21.35;53.48
54389;BME280;40975;50.390;8.640;2023-07-13T05:48:37;99082.31;;;21.84;51.34
54389;BME280;40975;50.390;8.640;2023-07-13T05:51:02;99079.50;;;21.97;50.61
54389;BME280;40975;50.390;8.640;2023-07-13T05:53:27;99087.06;;;22.51;49.70
54389;BME280;40975;50.390;8.640;2023-07-13T05:55:53;99086.41;;;23.05;48.44
54389;BME280;40975;50.390;8.640;2023-07-13T05:58:19;99091.25;;;23.45;46.65
54389;BME280;40975;50.390;8.640;2023-07-13T06:00:46;99095.97;;;23.38;45.64
54389;BME280;40975;50.390;8.640;2023-07-13T06:03:11;99104.66;;;23.94;45.10
54389;BME280;40975;50.390;8.640;2023-07-13T06:05:37;99098.91;;;24.38;43.64
54389;BME280;40975;50.390;8.640;2023-07-13T06:08:04;99108.31;;;24.24;43.87
54389;BME280;40975;50.390;8.640;2023-07-13T06:10:32;99107.50;;;24.35;43.99
54389;BME280;40975;50.390;8.640;2023-07-13T06:12:58;99106.03;;;24.56;43.40
54389;BME280;40975;50.390;8.640;2023-07-13T06:15:23;99102.31;;;24.33;43.31
54389;BME280;40975;50.390;8.640;2023-07-13T06:17:49;99112.91;;;24.35;43.13
54389;BME280;40975;50.390;8.640;2023-07-13T06:20:14;99114.09;;;24.39;43.51
54389;BME280;40975;50.390;8.640;2023-07-13T06:22:39;99114.41;;;24.78;42.36
54389;BME280;40975;50.390;8.640;2023-07-13T06:25:05;99118.09;;;25.01;42.55
54389;BME280;40975;50.390;8.640;2023-07-13T06:27:31;99126.09;;;25.49;41.80
54389;BME280;40975;50.390;8.640;2023-07-13T06:29:56;99124.28;;;25.88;41.58
54389;BME280;40975;50.390;8.640;2023-07-13T06:32:21;99126.38;;;26.15;41.17
54389;BME280;40975;50.390;8.640;2023-07-13T06:34:47;99129.22;;;26.08;40.76
54389;BME280;40975;50.390;8.640;2023-07-13T06:37:12;99134.66;;;26.26;40.26
54389;BME280;40975;50.390;8.640;2023-07-13T06:39:37;99136.91;;;26.51;40.16
54389;BME280;40975;50.390;8.640;2023-07-13T06:42:03;99130.50;;;26.18;40.25
54389;BME280;40975;50.390;8.640;2023-07-13T06:44:29;99130.63;;;25.77;40.46
54389;BME280;40975;50.390;8.640;2023-07-13T06:46:54;99137.75;;;26.12;40.54
54389;BME280;40975;50.390;8.640;2023-07-13T06:49:20;99143.72;;;25.97;40.55
54389;BME280;40975;50.390;8.640;2023-07-13T06:51:45;99145.94;;;26.34;40.15
54389;BME280;40975;50.390;8.640;2023-07-13T06:54:10;99143.72;;;26.31;39.41
54389;BME280;40975;50.390;8.640;2023-07-13T06:56:36;99140.19;;;25.80;39.87
54389;BME280;40975;50.390;8.640;2023-07-13T06:59:01;99146.53;;;26.36;40.79
54389;BME280;40975;50.390;8.640;2023-07-13T07:01:26;99152.88;;;26.81;39.02
54389;BME280;40975;50.390;8.640;2023-07-13T07:03:52;99152.28;;;27.24;38.73
54389;BME280;40975;50.390;8.640;2023-07-13T07:06:19;99152.75;;;27.70;38.16
54389;BME280;40975;50.390;8.640;2023-07-13T07:08:45;99159.03;;;28.03;37.20
54389;BME280;40975;50.390;8.640;2023-07-13T07:11:20;99146.44;;;27.65;37.11
54389;BME280;40975;50.390;8.640;2023-07-13T07:13:47;99162.88;;;28.07;37.04
54389;BME280;40975;50.390;8.640;2023-07-13T07:16:12;99166.25;;;28.15;36.83
54389;BME280;40975;50.390;8.640;2023-07-13T07:18:38;99169.34;;;28.34;36.32
54389;BME280;40975;50.390;8.640;2023-07-13T07:21:03;99167.03;;;28.15;36.20
54389;BME280;40975;50.390;8.640;2023-07-13T07:23:29;99166.38;;;28.83;36.11
54389;BME280;40975;50.390;8.640;2023-07-13T07:25:54;99173.75;;;28.83;36.00
54389;BME280;40975;50.390;8.640;2023-07-13T07:28:20;99170.34;;;29.19;35.56
54389;BME280;40975;50.390;8.640;2023-07-13T07:30:46;99171.78;;;28.73;35.91
54389;BME280;40975;50.390;8.640;2023-07-13T07:33:12;99174.28;;;28.85;36.36
54389;BME280;40975;50.390;8.640;2023-07-13T07:35:37;99176.91;;;29.28;35.22
54389;BME280;40975;50.390;8.640;2023-07-13T07:38:03;99175.38;;;29.68;35.00
54389;BME280;40975;50.390;8.640;2023-07-13T07:40:28;99173.19;;;29.75;34.77
54389;BME280;40975;50.390;8.640;2023-07-13T07:42:54;99169.06;;;29.42;35.26
54389;BME280;40975;50.390;8.640;2023-07-13T07:45:21;99168.44;;;28.66;36.15
54389;BME280;40975;50.390;8.640;2023-07-13T07:47:46;99160.66;;;28.42;35.92
54389;BME280;40975;50.390;8.640;2023-07-13T07:50:12;99159.69;;;28.64;36.23
54389;BME280;40975;50.390;8.640;2023-07-13T07:52:37;99170.91;;;28.19;37.17
54389;BME280;40975;50.390;8.640;2023-07-13T07:55:04;99157.88;;;27.39;37.58
54389;BME280;40975;50.390;8.640;2023-07-13T07:57:30;99168.50;;;27.41;37.20
54389;BME280;40975;50.390;8.640;2023-07-13T07:59:56;99153.38;;;26.61;38.71
54389;BME280;40975;50.390;8.640;2023-07-13T08:02:21;99158.06;;;26.66;39.08
54389;BME280;40975;50.390;8.640;2023-07-13T08:04:46;99167.56;;;26.24;40.09
54389;BME280;40975;50.390;8.640;2023-07-13T08:07:12;99163.75;;;27.04;39.40
54389;BME280;40975;50.390;8.640;2023-07-13T08:09:37;99164.25;;;27.23;38.00
54389;BME280;40975;50.390;8.640;2023-07-13T08:12:03;99159.38;;;27.03;38.95
54389;BME280;40975;50.390;8.640;2023-07-13T08:14:28;99158.59;;;27.29;38.84
54389;BME280;40975;50.390;8.640;2023-07-13T08:16:53;99156.31;;;27.43;37.15
54389;BME280;40975;50.390;8.640;2023-07-13T08:19:19;99160.59;;;27.39;35.58
54389;BME280;40975;50.390;8.640;2023-07-13T08:21:44;99159.22;;;26.31;37.84
54389;BME280;40975;50.390;8.640;2023-07-13T08:24:09;99152.84;;;26.59;37.76
54389;BME280;40975;50.390;8.640;2023-07-13T08:26:35;99157.41;;;25.68;39.07
54389;BME280;40975;50.390;8.640;2023-07-13T08:29:00;99163.69;;;24.99;40.39
54389;BME280;40975;50.390;8.640;2023-07-13T08:31:25;99172.06;;;25.26;40.59
54389;BME280;40975;50.390;8.640;2023-07-13T08:33:51;99165.81;;;24.97;40.62
54389;BME280;40975;50.390;8.640;2023-07-13T08:36:16;99175.88;;;25.25;39.84
54389;BME280;40975;50.390;8.640;2023-07-13T08:38:41;99179.72;;;25.01;39.32
54389;BME280;40975;50.390;8.640;2023-07-13T08:41:15;99183.03;;;25.32;39.75
54389;BME280;40975;50.390;8.640;2023-07-13T08:43:44;99182.91;;;25.67;38.26
54389;BME280;40975;50.390;8.640;2023-07-13T08:46:17;99176.44;;;26.53;37.12
54389;BME280;40975;50.390;8.640;2023-07-13T08:48:56;99183.53;;;27.71;35.78
54389;BME280;40975;50.390;8.640;2023-07-13T08:51:48;99197.28;;;29.78;32.89
54389;BME280;40975;50.390;8.640;2023-07-13T08:57:11;99179.25;;;30.08;31.91
54389;BME280;40975;50.390;8.640;2023-07-13T08:59:38;99177.66;;;31.14;30.64
54389;BME280;40975;50.390;8.640;2023-07-13T09:04:43;99184.50;;;31.01;30.46
54389;BME280;40975;50.390;8.640;2023-07-13T09:15:43;99172.31;;;29.34;34.08
54389;BME280;40975;50.390;8.640;2023-07-13T09:18:18;99178.53;;;29.19;32.78
54389;BME280;40975;50.390;8.640;2023-07-13T09:21:00;99175.53;;;29.20;33.66
54389;BME280;40975;50.390;8.640;2023-07-13T09:23:29;99179.38;;;29.24;34.37
54389;BME280;40975;50.390;8.640;2023-07-13T09:26:01;99180.25;;;29.51;32.86
54389;BME280;40975;50.390;8.640;2023-07-13T09:28:29;99170.38;;;29.29;32.75
54389;BME280;40975;50.390;8.640;2023-07-13T09:31:09;99169.59;;;29.34;32.77
54389;BME280;40975;50.390;8.640;2023-07-13T09:33:38;99170.22;;;30.13;31.41
54389;BME280;40975;50.390;8.640;2023-07-13T09:36:22;99169.88;;;29.42;32.03
54389;BME280;40975;50.390;8.640;2023-07-13T09:38:59;99181.41;;;29.86;31.52
54389;BME280;40975;50.390;8.640;2023-07-13T09:41:41;99181.72;;;30.00;31.64
54389;BME280;40975;50.390;8.640;2023-07-13T09:44:14;99170.00;;;31.51;30.24
54389;BME280;40975;50.390;8.640;2023-07-13T09:46:45;99171.16;;;31.45;29.33
54389;BME280;40975;50.390;8.640;2023-07-13T09:49:11;99173.84;;;31.50;29.73
54389;BME280;40975;50.390;8.640;2023-07-13T09:51:38;99175.72;;;32.00;29.44
54389;BME280;40975;50.390;8.640;2023-07-13T09:54:05;99174.78;;;32.68;29.28
54389;BME280;40975;50.390;8.640;2023-07-13T09:56:31;99173.06;;;32.24;29.59
54389;BME280;40975;50.390;8.640;2023-07-13T09:58:57;99168.38;;;32.24;29.71
54389;BME280;40975;50.390;8.640;2023-07-13T10:01:36;99181.81;;;32.55;29.37
54389;BME280;40975;50.390;8.640;2023-07-13T10:04:10;99172.78;;;32.25;29.43
54389;BME280;40975;50.390;8.640;2023-07-13T10:06:38;99164.28;;;30.97;30.21
54389;BME280;40975;50.390;8.640;2023-07-13T10:09:07;99175.88;;;32.67;29.36
54389;BME280;40975;50.390;8.640;2023-07-13T10:11:34;99168.50;;;32.92;29.06
54389;BME280;40975;50.390;8.640;2023-07-13T10:14:02;99169.84;;;33.38;27.81
54389;BME280;40975;50.390;8.640;2023-07-13T10:16:35;99168.97;;;33.18;27.86
54389;BME280;40975;50.390;8.640;2023-07-13T10:19:04;99168.81;;;33.10;29.23
54389;BME280;40975;50.390;8.640;2023-07-13T10:21:49;99161.69;;;33.09;27.74
54389;BME280;40975;50.390;8.640;2023-07-13T10:24:20;99174.66;;;32.84;28.03
54389;BME280;40975;50.390;8.640;2023-07-13T10:26:52;99166.00;;;32.13;28.63
54389;BME280;40975;50.390;8.640;2023-07-13T10:29:22;99152.78;;;30.95;29.60
54389;BME280;40975;50.390;8.640;2023-07-13T10:31:49;99158.31;;;31.80;29.43
54389;BME280;40975;50.390;8.640;2023-07-13T10:34:15;99161.59;;;32.70;28.47
54389;BME280;40975;50.390;8.640;2023-07-13T10:36:44;99161.34;;;32.91;28.62
54389;BME280;40975;50.390;8.640;2023-07-13T10:39:16;99163.22;;;31.83;28.49
54389;BME280;40975;50.390;8.640;2023-07-13T10:41:44;99153.75;;;32.59;27.97
54389;BME280;40975;50.390;8.640;2023-07-13T10:44:24;99161.44;;;34.01;28.26
54389;BME280;40975;50.390;8.640;2023-07-13T10:46:57;99164.16;;;32.86;28.36
54389;BME280;40975;50.390;8.640;2023-07-13T10:49:24;99162.59;;;33.23;27.40
54389;BME280;40975;50.390;8.640;2023-07-13T10:51:51;99144.72;;;30.59;30.23
54389;BME280;40975;50.390;8.640;2023-07-13T10:54:32;99147.16;;;29.37;32.75
54389;BME280;40975;50.390;8.640;2023-07-13T10:57:18;99142.50;;;29.27;32.39
54389;BME280;40975;50.390;8.640;2023-07-13T11:00:13;99151.06;;;31.15;29.90
54389;BME280;40975;50.390;8.640;2023-07-13T11:02:39;99161.59;;;31.82;29.51
54389;BME280;40975;50.390;8.640;2023-07-13T11:05:29;99144.94;;;29.28;31.79
54389;BME280;40975;50.390;8.640;2023-07-13T11:08:04;99144.53;;;28.35;33.01
54389;BME280;40975;50.390;8.640;2023-07-13T11:10:53;99150.31;;;28.06;34.12
54389;BME280;40975;50.390;8.640;2023-07-13T11:16:32;99151.41;;;28.43;33.98
54389;BME280;40975;50.390;8.640;2023-07-13T11:21:27;99144.22;;;29.59;31.58
54389;BME280;40975;50.390;8.640;2023-07-13T11:26:37;99148.59;;;29.86;30.78
54389;BME280;40975;50.390;8.640;2023-07-13T11:31:58;99147.50;;;29.76;31.54
54389;BME280;40975;50.390;8.640;2023-07-13T11:34:29;99155.41;;;29.88;31.57
54389;BME280;40975;50.390;8.640;2023-07-13T11:36:57;99146.69;;;29.97;31.28
54389;BME280;40975;50.390;8.640;2023-07-13T11:39:32;99155.34;;;30.66;30.82
54389;BME280;40975;50.390;8.640;2023-07-13T11:42:02;99141.41;;;29.28;31.97
54389;BME280;40975;50.390;8.640;2023-07-13T11:44:30;99141.22;;;30.02;32.93
54389;BME280;40975;50.390;8.640;2023-07-13T11:46:58;99134.81;;;29.19;33.18
54389;BME280;40975;50.390;8.640;2023-07-13T11:49:29;99145.97;;;28.48;34.04
54389;BME280;40975;50.390;8.640;2023-07-13T11:51:55;99152.28;;;28.11;35.49
54389;BME280;40975;50.390;8.640;2023-07-13T11:54:30;99143.00;;;27.80;36.05
54389;BME280;40975;50.390;8.640;2023-07-13T11:56:59;99147.38;;;28.13;35.21
54389;BME280;40975;50.390;8.640;2023-07-13T11:59:27;99151.50;;;27.83;35.50
54389;BME280;40975;50.390;8.640;2023-07-13T12:01:54;99149.78;;;27.44;36.03
54389;BME280;40975;50.390;8.640;2023-07-13T12:04:30;99151.72;;;26.99;36.89
54389;BME280;40975;50.390;8.640;2023-07-13T12:07:07;99148.97;;;27.22;37.48
54389;BME280;40975;50.390;8.640;2023-07-13T12:09:34;99148.25;;;27.86;36.61
54389;BME280;40975;50.390;8.640;2023-07-13T12:12:02;99143.09;;;27.35;36.01
54389;BME280;40975;50.390;8.640;2023-07-13T12:14:27;99149.50;;;26.96;36.82
54389;BME280;40975;50.390;8.640;2023-07-13T12:16:53;99148.91;;;26.72;37.91
54389;BME280;40975;50.390;8.640;2023-07-13T12:19:25;99155.97;;;26.51;37.90
54389;BME280;40975;50.390;8.640;2023-07-13T12:21:53;99151.28;;;25.78;37.16
54389;BME280;40975;50.390;8.640;2023-07-13T12:24:21;99146.53;;;25.68;38.00
54389;BME280;40975;50.390;8.640;2023-07-13T12:27:00;99148.84;;;25.76;37.84
54389;BME280;40975;50.390;8.640;2023-07-13T12:29:29;99142.81;;;26.08;37.80
54389;BME280;40975;50.390;8.640;2023-07-13T12:31:55;99147.09;;;26.04;37.22
54389;BME280;40975;50.390;8.640;2023-07-13T12:34:23;99148.16;;;25.86;36.95
54389;BME280;40975;50.390;8.640;2023-07-13T12:36:58;99151.63;;;25.82;37.42
54389;BME280;40975;50.390;8.640;2023-07-13T12:39:29;99166.97;;;25.88;37.16
54389;BME280;40975;50.390;8.640;2023-07-13T12:42:16;99148.00;;;25.59;37.87
54389;BME280;40975;50.390;8.640;2023-07-13T12:44:43;99165.31;;;26.21;37.44
54389;BME280;40975;50.390;8.640;2023-07-13T12:47:12;99153.03;;;26.35;37.45
54389;BME280;40975;50.390;8.640;2023-07-13T12:49:44;99159.53;;;26.34;36.78
54389;BME280;40975;50.390;8.640;2023-07-13T12:52:20;99163.44;;;26.21;36.97
54389;BME280;40975;50.390;8.640;2023-07-13T12:54:57;99153.38;;;26.22;37.15
54389;BME280;40975;50.390;8.640;2023-07-13T12:57:24;99158.91;;;26.27;37.65
54389;BME280;40975;50.390;8.640;2023-07-13T12:59:53;99151.72;;;26.21;37.26
54389;BME280;40975;50.390;8.640;2023-07-13T13:02:30;99158.06;;;26.27;36.98
54389;BME280;40975;50.390;8.640;2023-07-13T13:04:57;99158.81;;;26.22;37.82
54389;BME280;40975;50.390;8.640;2023-07-13T13:07:24;99154.38;;;26.16;37.42
54389;BME280;40975;50.390;8.640;2023-07-13T13:09:50;99164.25;;;26.61;37.84
54389;BME280;40975;50.390;8.640;2023-07-13T13:12:17;99158.97;;;26.32;37.43
54389;BME280;40975;50.390;8.640;2023-07-13T13:14:42;99166.97;;;26.22;37.25
54389;BME280;40975;50.390;8.640;2023-07-13T13:17:19;99161.19;;;26.01;36.89
54389;BME280;40975;50.390;8.640;2023-07-13T13:19:45;99168.34;;;25.90;35.97
54389;BME280;40975;50.390;8.640;2023-07-13T13:22:11;99167.88;;;25.94;37.24
54389;BME280;40975;50.390;8.640;2023-07-13T13:24:37;99168.63;;;25.89;36.35
54389;BME280;40975;50.390;8.640;2023-07-13T13:27:02;99172.94;;;25.56;36.58
54389;BME280;40975;50.390;8.640;2023-07-13T13:29:28;99171.56;;;25.70;37.19
54389;BME280;40975;50.390;8.640;2023-07-13T13:31:54;99168.84;;;26.04;37.81